Time;durP1;ratioP1;P1;durP2;ratioP2;P2;SDS_P1;SDS_P2;PMS_P1;PMS_P2;Temp;Humidity;BMP_temperature;BMP_pressure;BME280_temperature;BME280_humidity;BME280_pressure;Samples;Min_cycle;Max_cycle;Signal;HPM_P1;HPM_P2
2022/11/12 00:02:48;;;;;;;;;;;;;;;7.21;100.00;101984.56;5590345;31;35100;-70
2022/11/12 00:06:12;;;;;;;;;;;;;;;7.20;100.00;101967.03;5576590;31;35054;-70
2022/11/12 00:09:36;;;;;;;;;;;;;;;7.20;100.00;101961.75;5590204;31;34491;-70
2022/11/12 00:13:01;;;;;;;;;;;;;;;7.18;100.00;101953.94;5590150;31;34970;-70
2022/11/12 00:16:26;;;;;;;;;;;;;;;7.20;100.00;101951.22;5590252;31;34965;-70
2022/11/12 00:19:50;;;;;;;;;;;;;;;7.17;100.00;101952.25;5589567;31;34855;-70
2022/11/12 00:23:17;;;;;;;;;;;;;;;7.14;100.00;101944.56;5590282;31;34217;-70
2022/11/12 00:26:41;;;;;;;;;;;;;;;7.12;100.00;101950.88;5576232;31;33017;-70
2022/11/12 00:30:06;;;;;;;;;;;;;;;7.15;100.00;101943.62;5576455;31;35162;-70
2022/11/12 00:33:31;;;;;;;;;;;;;;;7.18;100.00;101942.53;5590244;31;34316;-70
2022/11/12 00:37:00;;;;;;;;;;;;;;;7.25;100.00;101942.00;5576535;31;34569;-70
2022/11/12 00:40:25;;;;;;;;;;;;;;;7.27;100.00;101940.09;5590132;31;34982;-70
2022/11/12 00:43:50;;;;;;;;;;;;;;;7.29;100.00;101938.19;5590020;31;35100;-70
2022/11/12 00:47:15;;;;;;;;;;;;;;;7.33;100.00;101936.19;5590006;31;34357;-70
2022/11/12 00:50:40;;;;;;;;;;;;;;;7.37;100.00;101932.38;5590078;31;34821;-70
2022/11/12 00:54:05;;;;;;;;;;;;;;;7.36;100.00;101928.03;5590064;31;34399;-70
2022/11/12 00:57:28;;;;;;;;;;;;;;;7.43;100.00;101927.50;5575949;31;34609;-70
2022/11/12 01:00:51;;;;;;;;;;;;;;;7.46;100.00;101923.78;5589880;31;34342;-70
2022/11/12 01:04:16;;;;;;;;;;;;;;;7.45;100.00;101924.75;5589872;31;34854;-70
2022/11/12 01:07:41;;;;;;;;;;;;;;;7.49;100.00;101928.03;5589806;31;34217;-70
2022/11/12 01:11:08;;;;;;;;;;;;;;;7.50;100.00;101930.56;5589675;31;34326;-71
2022/11/12 01:14:32;;;;;;;;;;;;;;;7.48;100.00;101921.87;5576211;31;34296;-70
2022/11/12 01:17:56;;;;;;;;;;;;;;;7.51;100.00;101926.09;5589607;31;34580;-71
2022/11/12 01:21:21;;;;;;;;;;;;;;;7.55;100.00;101923.12;5589716;31;34268;-70
2022/11/12 01:24:44;;;;;;;;;;;;;;;7.53;100.00;101918.91;5576015;31;33714;-70
2022/11/12 01:28:09;;;;;;;;;;;;;;;7.59;100.00;101921.13;5589662;31;34293;-71
2022/11/12 01:31:36;;;;;;;;;;;;;;;7.66;100.00;101914.41;5589621;31;34313;-70
2022/11/12 01:35:01;;;;;;;;;;;;;;;7.63;100.00;101910.22;5578600;31;34291;-70
2022/11/12 01:38:24;;;;;;;;;;;;;;;7.65;100.00;101915.41;5577909;31;34178;-70
2022/11/12 01:41:49;;;;;;;;;;;;;;;7.57;100.00;101905.38;5589394;31;34895;-71
2022/11/12 01:45:16;;;;;;;;;;;;;;;7.56;100.00;101903.69;5575624;31;32667;-70
2022/11/12 01:48:46;;;;;;;;;;;;;;;7.54;100.00;101905.63;5589296;31;34360;-70
2022/11/12 01:52:12;;;;;;;;;;;;;;;7.52;100.00;101901.37;5589223;31;35098;-70
2022/11/12 01:55:37;;;;;;;;;;;;;;;7.49;100.00;101905.09;5589139;31;34631;-70
2022/11/12 01:59:04;;;;;;;;;;;;;;;7.50;100.00;101895.38;5589099;31;34958;-70
2022/11/12 02:02:29;;;;;;;;;;;;;;;7.55;100.00;101895.91;5589316;31;34850;-70
2022/11/12 02:06:00;;;;;;;;;;;;;;;7.39;100.00;101902.28;5588869;31;34951;-70
2022/11/12 02:09:25;;;;;;;;;;;;;;;7.32;100.00;101903.66;5588966;31;34360;-70
2022/11/12 02:16:35;;;;;;;;;;;;;;;7.22;100.00;101886.78;5588828;31;34330;-69
2022/11/12 02:20:00;;;;;;;;;;;;;;;7.28;100.00;101881.06;5588713;31;34482;-70
2022/11/12 02:23:23;;;;;;;;;;;;;;;7.18;100.00;101881.84;5588657;31;34779;-70
2022/11/12 02:26:50;;;;;;;;;;;;;;;7.14;100.00;101888.28;5588433;31;34418;-70
2022/11/12 02:30:15;;;;;;;;;;;;;;;7.13;100.00;101887.44;5588717;31;34295;-70
2022/11/12 02:33:39;;;;;;;;;;;;;;;7.08;100.00;101886.91;5574729;31;34046;-69
2022/11/12 02:37:04;;;;;;;;;;;;;;;6.91;100.00;101896.03;5588445;31;34645;-70
2022/11/12 02:40:29;;;;;;;;;;;;;;;6.85;100.00;101888.56;5588365;31;34299;-70
2022/11/12 02:43:54;;;;;;;;;;;;;;;6.84;100.00;101891.28;5589404;31;34275;-70
2022/11/12 02:47:18;;;;;;;;;;;;;;;6.85;100.00;101892.97;5591062;31;34297;-70
2022/11/12 02:50:42;;;;;;;;;;;;;;;6.83;100.00;101900.12;5591100;31;34258;-71
2022/11/12 02:54:07;;;;;;;;;;;;;;;6.82;100.00;101898.47;5591084;31;34697;-71
2022/11/12 02:57:31;;;;;;;;;;;;;;;6.79;100.00;101896.88;5591066;31;34273;-71
2022/11/12 03:00:56;;;;;;;;;;;;;;;6.82;100.00;101896.69;5591180;31;35124;-71
2022/11/12 03:04:21;;;;;;;;;;;;;;;6.83;100.00;101894.87;5590972;31;34632;-71
2022/11/12 03:07:44;;;;;;;;;;;;;;;6.85;100.00;101888.56;5577177;31;35178;-71
2022/11/12 03:11:11;;;;;;;;;;;;;;;6.80;100.00;101893.31;5591002;31;35069;-71
2022/11/12 03:14:35;;;;;;;;;;;;;;;6.77;100.00;101905.88;5590947;31;34927;-71
2022/11/12 03:17:59;;;;;;;;;;;;;;;6.72;100.00;101914.09;5591007;31;34924;-71
2022/11/12 03:21:22;;;;;;;;;;;;;;;6.71;100.00;101903.66;5590782;31;34771;-71
2022/11/12 03:24:48;;;;;;;;;;;;;;;6.63;100.00;101908.59;5591154;31;34349;-71
2022/11/12 03:28:14;;;;;;;;;;;;;;;6.61;100.00;101907.84;5577081;31;34103;-71
2022/11/12 03:31:39;;;;;;;;;;;;;;;6.52;100.00;101915.47;5590736;31;34882;-71
2022/11/12 03:35:06;;;;;;;;;;;;;;;6.52;100.00;101925.16;5590540;31;34626;-71
2022/11/12 03:38:30;;;;;;;;;;;;;;;6.47;100.00;101929.91;5590784;31;35035;-71
2022/11/12 03:41:53;;;;;;;;;;;;;;;6.51;100.00;101920.81;5576887;31;34493;-71
2022/11/12 03:45:18;;;;;;;;;;;;;;;6.36;100.00;101922.69;5565667;31;34815;-70
2022/11/12 03:48:42;;;;;;;;;;;;;;;6.30;100.00;101931.00;5590606;31;34728;-70
2022/11/12 03:52:07;;;;;;;;;;;;;;;6.26;100.00;101924.25;5590517;31;34471;-70
2022/11/12 03:55:31;;;;;;;;;;;;;;;6.25;100.00;101919.94;5589723;31;34640;-70
2022/11/12 03:58:58;;;;;;;;;;;;;;;6.20;100.00;101910.63;5590549;31;34891;-70
2022/11/12 04:02:24;;;;;;;;;;;;;;;6.15;100.00;101929.41;5590315;31;34906;-70
2022/11/12 04:09:28;;;;;;;;;;;;;;;6.19;100.00;101916.88;5515419;31;2444028;-71
2022/11/12 04:24:00;;;;;;;;;;;;;;;6.46;100.00;101905.31;5590322;31;34834;-71
2022/11/12 04:27:27;;;;;;;;;;;;;;;6.39;100.00;101905.84;5590268;31;34254;-71
2022/11/12 04:30:51;;;;;;;;;;;;;;;6.36;100.00;101916.59;5578770;31;34931;-70
2022/11/12 04:34:27;;;;;;;;;;;;;;;6.39;100.00;101916.41;5578817;31;34351;-70
2022/11/12 04:37:52;;;;;;;;;;;;;;;6.35;100.00;101923.66;5590150;31;34293;-70
2022/11/12 04:45:00;;;;;;;;;;;;;;;6.19;100.00;101909.81;5589923;31;35150;-70
2022/11/12 04:48:26;;;;;;;;;;;;;;;6.17;100.00;101902.94;5590004;31;34805;-70
2022/11/12 04:52:06;;;;;;;;;;;;;;;6.07;100.00;101906.19;5590065;31;34231;-70
2022/11/12 04:55:29;;;;;;;;;;;;;;;5.95;100.00;101901.75;5589989;31;34502;-70
2022/11/12 04:58:52;;;;;;;;;;;;;;;6.05;100.00;101915.16;5589935;31;34284;-71
2022/11/12 05:02:16;;;;;;;;;;;;;;;5.99;100.00;101924.31;5589845;31;34800;-71
2022/11/12 05:05:40;;;;;;;;;;;;;;;5.97;100.00;101928.81;5589841;31;34271;-71
2022/11/12 05:09:03;;;;;;;;;;;;;;;5.93;100.00;101922.06;5589873;31;34188;-71
2022/11/12 05:12:27;;;;;;;;;;;;;;;5.85;100.00;101919.06;5589613;31;34311;-71
2022/11/12 05:15:53;;;;;;;;;;;;;;;5.81;100.00;101928.09;5578598;31;34185;-71
2022/11/12 05:19:18;;;;;;;;;;;;;;;5.99;100.00;101921.69;5589653;31;34966;-71
2022/11/12 05:22:43;;;;;;;;;;;;;;;5.85;100.00;101916.44;5589653;31;34815;-71
2022/11/12 05:26:28;;;;;;;;;;;;;;;5.80;100.00;101931.69;5589620;31;34483;-71
2022/11/12 05:29:51;;;;;;;;;;;;;;;5.76;100.00;101932.81;5576020;31;33034;-71
2022/11/12 05:33:16;;;;;;;;;;;;;;;5.77;100.00;101931.03;5578190;31;34796;-71
2022/11/12 05:36:42;;;;;;;;;;;;;;;5.69;100.00;101924.47;5589513;31;34534;-71
2022/11/12 05:40:08;;;;;;;;;;;;;;;5.69;100.00;101931.53;5589468;31;34974;-71
2022/11/12 05:43:33;;;;;;;;;;;;;;;5.71;100.00;101926.19;5589295;31;35011;-71
2022/11/12 05:46:59;;;;;;;;;;;;;;;5.71;100.00;101926.19;5589488;31;34250;-71
2022/11/12 05:50:22;;;;;;;;;;;;;;;5.74;100.00;101932.09;5589316;31;34888;-71
2022/11/12 05:53:56;;;;;;;;;;;;;;;5.70;100.00;101933.22;5589098;31;34965;-71
2022/11/12 05:57:19;;;;;;;;;;;;;;;5.74;100.00;101949.66;5575233;31;34772;-71
2022/11/12 06:00:42;;;;;;;;;;;;;;;5.82;100.00;101950.00;5589190;31;34395;-71
2022/11/12 06:04:06;;;;;;;;;;;;;;;5.86;100.00;101952.34;5588895;31;34952;-71
2022/11/12 06:07:31;;;;;;;;;;;;;;;5.97;100.00;101941.16;5588891;31;34926;-71
2022/11/12 06:10:55;;;;;;;;;;;;;;;6.00;100.00;101946.25;5575175;31;34546;-71
2022/11/12 06:14:20;;;;;;;;;;;;;;;5.97;100.00;101960.44;5574758;31;36661;-72
2022/11/12 06:17:44;;;;;;;;;;;;;;;5.99;100.00;101962.97;5588820;31;34787;-71
2022/11/12 06:25:02;;;;;;;;;;;;;;;6.07;100.00;101973.84;5591340;31;34173;-71
2022/11/12 06:28:27;;;;;;;;;;;;;;;6.06;100.00;101980.91;5577348;31;34481;-71
2022/11/12 06:31:51;;;;;;;;;;;;;;;6.22;100.00;101993.09;5590961;31;34285;-71
2022/11/12 06:35:17;;;;;;;;;;;;;;;6.10;100.00;101987.66;5591095;31;34659;-72
2022/11/12 06:38:42;;;;;;;;;;;;;;;6.15;100.00;102000.53;5591108;31;34907;-71
2022/11/12 06:42:06;;;;;;;;;;;;;;;6.17;100.00;102005.72;5590970;31;34237;-71
2022/11/12 06:45:32;;;;;;;;;;;;;;;6.04;100.00;102005.69;5579880;31;34860;-71
2022/11/12 06:48:55;;;;;;;;;;;;;;;6.08;100.00;102002.75;5590952;31;34315;-71
2022/11/12 06:52:19;;;;;;;;;;;;;;;6.02;100.00;101997.00;5565970;31;35000;-71
2022/11/12 06:55:45;;;;;;;;;;;;;;;6.04;100.00;101993.34;5590969;31;34869;-71
2022/11/12 06:59:08;;;;;;;;;;;;;;;6.03;100.00;102001.34;5590922;31;34874;-71
2022/11/12 07:02:32;;;;;;;;;;;;;;;6.05;100.00;102007.38;5590737;31;34938;-71
2022/11/12 07:05:57;;;;;;;;;;;;;;;6.02;100.00;102007.56;5576397;31;34241;-72
2022/11/12 07:09:22;;;;;;;;;;;;;;;5.96;100.00;102021.09;5591022;31;34868;-71
2022/11/12 07:12:46;;;;;;;;;;;;;;;6.09;100.00;102020.25;5570282;32;34714;-71
2022/11/12 07:16:17;;;;;;;;;;;;;;;6.34;100.00;102042.38;5570748;32;34464;-72
2022/11/12 07:19:41;;;;;;;;;;;;;;;6.43;100.00;102033.87;5570718;32;33581;-72
2022/11/12 07:23:03;;;;;;;;;;;;;;;6.57;100.00;102028.53;5559149;32;34243;-71
2022/11/12 07:26:27;;;;;;;;;;;;;;;6.62;100.00;102022.94;5571067;32;34242;-71
2022/11/12 07:29:51;;;;;;;;;;;;;;;6.66;100.00;102024.41;5570264;32;35236;-71
2022/11/12 07:33:17;;;;;;;;;;;;;;;6.75;100.00;102022.00;5571024;32;34207;-72
2022/11/12 07:36:42;;;;;;;;;;;;;;;6.94;100.00;102017.19;5570817;32;34236;-71
2022/11/12 07:40:09;;;;;;;;;;;;;;;7.11;100.00;102015.19;5570380;32;34407;-71
2022/11/12 07:43:34;;;;;;;;;;;;;;;7.23;100.00;102016.97;5570250;32;34330;-71
2022/11/12 07:46:58;;;;;;;;;;;;;;;7.43;100.00;102017.28;5559464;32;35627;-71
2022/11/12 07:50:22;;;;;;;;;;;;;;;7.70;100.00;102016.25;5569944;32;35114;-71
2022/11/12 07:53:48;;;;;;;;;;;;;;;7.69;100.00;102019.87;5570662;32;34687;-71
2022/11/12 07:57:19;;;;;;;;;;;;;;;7.94;100.00;102017.13;5570188;32;34445;-71
2022/11/12 08:00:43;;;;;;;;;;;;;;;8.22;100.00;102026.56;5570272;32;34090;-71
2022/11/12 08:04:09;;;;;;;;;;;;;;;8.17;100.00;102034.00;5569766;32;34764;-70
2022/11/12 08:07:32;;;;;;;;;;;;;;;8.44;100.00;102032.00;5570621;32;34364;-71
2022/11/12 08:10:56;;;;;;;;;;;;;;;8.63;100.00;102032.31;5569781;32;34884;-71
2022/11/12 08:14:21;;;;;;;;;;;;;;;8.60;100.00;102052.84;5570075;32;34127;-71
2022/11/12 08:17:43;;;;;;;;;;;;;;;8.61;100.00;102049.25;5570469;32;34211;-71
2022/11/12 08:21:09;;;;;;;;;;;;;;;8.72;100.00;102052.78;5569792;32;34479;-71
2022/11/12 08:24:34;;;;;;;;;;;;;;;8.79;100.00;102054.97;5569937;32;34342;-71
2022/11/12 08:27:59;;;;;;;;;;;;;;;8.48;100.00;102057.25;5569661;32;34364;-71
2022/11/12 08:31:22;;;;;;;;;;;;;;;8.92;100.00;102055.72;5569889;32;35204;-71
2022/11/12 08:34:47;;;;;;;;;;;;;;;8.81;100.00;102048.59;5569765;32;34768;-71
2022/11/12 08:38:12;;;;;;;;;;;;;;;9.21;100.00;102058.78;5569725;32;34612;-70
2022/11/12 08:41:37;;;;;;;;;;;;;;;9.01;100.00;102049.72;5569749;32;34378;-71
2022/11/12 08:45:02;;;;;;;;;;;;;;;9.12;100.00;102063.00;5570261;32;34460;-70
2022/11/12 08:48:27;;;;;;;;;;;;;;;8.95;100.00;102064.28;5569835;32;34345;-71
2022/11/12 08:51:50;;;;;;;;;;;;;;;9.10;100.00;102057.00;5569692;32;36092;-70
2022/11/12 08:55:12;;;;;;;;;;;;;;;9.38;100.00;102063.66;5570188;32;35025;-70
2022/11/12 08:58:37;;;;;;;;;;;;;;;8.94;100.00;102061.75;5569625;32;35170;-71
2022/11/12 09:02:01;;;;;;;;;;;;;;;8.72;100.00;102065.16;5569429;32;35242;-70
2022/11/12 09:05:24;;;;;;;;;;;;;;;8.57;100.00;102072.44;5570148;32;34949;-70
2022/11/12 09:08:48;;;;;;;;;;;;;;;8.76;100.00;102071.94;5570394;32;34615;-70
2022/11/12 09:12:17;;;;;;;;;;;;;;;8.86;100.00;102072.91;5577044;31;34205;-70
2022/11/12 09:15:40;;;;;;;;;;;;;;;9.01;100.00;102079.69;5589564;31;34810;-70
2022/11/12 09:19:03;;;;;;;;;;;;;;;8.98;100.00;102092.31;5574853;31;34102;-71
2022/11/12 09:22:27;;;;;;;;;;;;;;;9.34;100.00;102086.03;5589223;31;34954;-71
2022/11/12 09:25:51;;;;;;;;;;;;;;;9.49;100.00;102093.63;5589243;31;35037;-70
2022/11/12 09:29:14;;;;;;;;;;;;;;;9.67;100.00;102087.87;5589282;31;35042;-70
2022/11/12 09:32:36;;;;;;;;;;;;;;;9.84;100.00;102100.63;5589566;31;34898;-70
2022/11/12 09:35:59;;;;;;;;;;;;;;;9.95;100.00;102100.63;5575596;31;34386;-70
2022/11/12 09:39:23;;;;;;;;;;;;;;;10.25;100.00;102092.06;5575593;31;34036;-70
2022/11/12 09:42:53;;;;;;;;;;;;;;;10.23;100.00;102092.16;5575469;31;34201;-70
2022/11/12 09:46:35;;;;;;;;;;;;;;;10.20;100.00;102099.53;5588932;31;34336;-70
2022/11/12 09:50:02;;;;;;;;;;;;;;;10.70;100.00;102098.06;5563968;31;34659;-72
2022/11/12 09:53:31;;;;;;;;;;;;;;;11.02;100.00;102096.22;5587635;31;34497;-72
2022/11/12 09:56:56;;;;;;;;;;;;;;;11.13;100.00;102100.66;5564302;31;35037;-72
2022/11/12 10:00:20;;;;;;;;;;;;;;;11.44;100.00;102104.19;5577407;31;34917;-72
2022/11/12 10:03:48;;;;;;;;;;;;;;;11.58;100.00;102106.50;5588671;31;34191;-72
2022/11/12 10:07:30;;;;;;;;;;;;;;;11.42;100.00;102114.13;5574506;31;33017;-72
2022/11/12 10:11:06;;;;;;;;;;;;;;;11.81;100.00;102110.72;5588938;31;34286;-72
2022/11/12 10:14:34;;;;;;;;;;;;;;;12.53;100.00;102118.47;5588670;31;34207;-72
2022/11/12 10:18:00;;;;;;;;;;;;;;;12.52;100.00;102114.13;5576851;31;34246;-72
2022/11/12 10:21:41;;;;;;;;;;;;;;;12.99;100.00;102107.13;5574702;31;33650;-72
2022/11/12 10:25:12;;;;;;;;;;;;;;;12.75;100.00;102107.53;5552843;31;34011;-72
2022/11/12 10:28:39;;;;;;;;;;;;;;;12.69;100.00;102101.94;5588367;31;35109;-72
2022/11/12 10:32:02;;;;;;;;;;;;;;;12.39;100.00;102094.91;5574392;31;34324;-72
2022/11/12 10:35:25;;;;;;;;;;;;;;;12.20;100.00;102095.69;5588045;31;34390;-72
2022/11/12 10:38:50;;;;;;;;;;;;;;;12.29;100.00;102094.06;5588366;31;34928;-71
2022/11/12 10:42:17;;;;;;;;;;;;;;;12.44;100.00;102093.50;5574635;31;35268;-71
2022/11/12 10:45:40;;;;;;;;;;;;;;;12.61;100.00;102091.97;5587996;31;34938;-71
2022/11/12 10:49:21;;;;;;;;;;;;;;;12.58;100.00;102084.28;5587804;31;34304;-70
2022/11/12 10:53:03;;;;;;;;;;;;;;;12.04;100.00;102093.56;5574317;31;35074;-71
2022/11/12 10:56:29;;;;;;;;;;;;;;;12.54;100.00;102094.34;5588126;31;34662;-71
2022/11/12 11:00:08;;;;;;;;;;;;;;;12.92;100.00;102096.19;5587784;31;34930;-71
2022/11/12 11:03:32;;;;;;;;;;;;;;;12.66;100.00;102089.75;5587681;31;35097;-72
2022/11/12 11:06:57;;;;;;;;;;;;;;;13.23;100.00;102083.56;5590546;31;34866;-71
2022/11/12 11:10:28;;;;;;;;;;;;;;;13.81;96.88;102078.88;5576428;31;34288;-71
2022/11/12 11:13:55;;;;;;;;;;;;;;;14.54;93.47;102074.37;5590567;31;34744;-71
2022/11/12 11:17:20;;;;;;;;;;;;;;;16.21;82.49;102065.09;5576806;31;33141;-72
2022/11/12 11:20:46;;;;;;;;;;;;;;;17.31;75.12;102068.16;5590754;31;34355;-71
2022/11/12 11:24:11;;;;;;;;;;;;;;;16.72;76.30;102065.84;5590609;31;34864;-71
2022/11/12 11:27:41;;;;;;;;;;;;;;;16.70;75.40;102067.87;5576996;31;35408;-72
2022/11/12 11:31:15;;;;;;;;;;;;;;;15.10;83.45;102067.84;5590613;31;34206;-71
2022/11/12 11:34:48;;;;;;;;;;;;;;;14.48;89.04;102055.44;5575869;31;34452;-71
2022/11/12 11:38:24;;;;;;;;;;;;;;;15.05;85.48;102062.12;5590297;31;35040;-71
2022/11/12 11:42:08;;;;;;;;;;;;;;;14.53;89.68;102054.00;5590313;31;34782;-71
2022/11/12 11:45:51;;;;;;;;;;;;;;;14.78;87.33;102053.22;5590464;31;34243;-71
2022/11/12 11:49:34;;;;;;;;;;;;;;;14.88;86.54;102054.97;5576778;31;34403;-71
2022/11/12 11:53:17;;;;;;;;;;;;;;;14.59;88.92;102047.22;5590378;31;34629;-71
2022/11/12 11:56:44;;;;;;;;;;;;;;;15.25;84.42;102044.06;5590403;31;34695;-71
2022/11/12 12:00:19;;;;;;;;;;;;;;;15.08;85.24;102040.44;5590575;31;34632;-70
2022/11/12 12:03:56;;;;;;;;;;;;;;;14.74;88.03;102043.00;5590134;31;34923;-71
2022/11/12 12:07:25;;;;;;;;;;;;;;;15.04;85.88;102041.75;5565001;31;33765;-70
2022/11/12 12:11:06;;;;;;;;;;;;;;;15.02;85.25;102039.22;5589826;31;34448;-70
2022/11/12 12:14:35;;;;;;;;;;;;;;;15.37;85.20;102027.56;5576280;31;33989;-70
2022/11/12 12:18:07;;;;;;;;;;;;;;;15.58;82.99;102033.41;5589237;31;34207;-70
2022/11/12 12:21:33;;;;;;;;;;;;;;;16.20;79.51;102019.72;5578596;31;34616;-70
2022/11/12 12:25:01;;;;;;;;;;;;;;;16.38;77.96;102017.72;5576326;31;34165;-70
2022/11/12 12:28:27;;;;;;;;;;;;;;;15.56;82.33;102010.47;5590028;31;34909;-70
2022/11/12 12:31:57;;;;;;;;;;;;;;;15.47;83.07;102004.22;5576311;31;35496;-70
2022/11/12 12:35:24;;;;;;;;;;;;;;;15.52;83.85;102009.13;5589975;31;34337;-71
2022/11/12 12:38:48;;;;;;;;;;;;;;;15.64;82.06;102006.00;5565507;31;35350;-70
2022/11/12 12:42:17;;;;;;;;;;;;;;;15.14;86.46;102003.22;5576243;31;34576;-70
2022/11/12 12:45:45;;;;;;;;;;;;;;;15.72;82.10;101999.84;5575998;31;33932;-70
2022/11/12 12:49:13;;;;;;;;;;;;;;;15.40;83.23;102008.53;5589664;31;35217;-70
2022/11/12 12:53:05;;;;;;;;;;;;;;;15.09;85.57;102004.69;5589833;31;34558;-70
2022/11/12 12:56:28;;;;;;;;;;;;;;;14.83;87.07;102004.66;5563757;31;33189;-70
2022/11/12 13:00:12;;;;;;;;;;;;;;;14.63;89.27;102006.69;5589551;31;34954;-70
2022/11/12 13:03:43;;;;;;;;;;;;;;;14.88;87.91;102005.03;5589528;31;34978;-70
2022/11/12 13:07:07;;;;;;;;;;;;;;;14.35;90.16;101999.72;5589567;31;34905;-71
2022/11/12 13:10:37;;;;;;;;;;;;;;;14.61;89.13;102000.69;5575823;31;34992;-71
2022/11/12 13:14:19;;;;;;;;;;;;;;;14.18;92.19;101997.91;5589488;31;34986;-70
2022/11/12 13:17:46;;;;;;;;;;;;;;;13.90;94.43;101997.94;5578364;31;33289;-70
2022/11/12 13:21:10;;;;;;;;;;;;;;;14.08;93.75;101989.97;5575898;31;32854;-70
2022/11/12 13:24:52;;;;;;;;;;;;;;;14.14;93.31;101992.00;5575584;31;33178;-70
2022/11/12 13:28:18;;;;;;;;;;;;;;;14.04;93.80;101988.56;5589406;31;34944;-70
2022/11/12 13:31:45;;;;;;;;;;;;;;;13.82;95.28;101991.69;5578432;31;34693;-70
2022/11/12 13:35:25;;;;;;;;;;;;;;;13.61;96.92;101991.94;5575769;31;34676;-70
2022/11/12 13:38:52;;;;;;;;;;;;;;;13.63;98.55;101997.97;5575848;31;34332;-70
2022/11/12 13:46:09;;;;;;;;;;;;;;;13.73;96.75;101990.75;5575534;31;33501;-70
2022/11/12 13:49:35;;;;;;;;;;;;;;;13.62;98.29;101990.09;5589334;31;34816;-70
2022/11/12 13:53:00;;;;;;;;;;;;;;;13.57;98.07;101995.03;5589286;31;34938;-69
2022/11/12 13:56:33;;;;;;;;;;;;;;;13.75;96.38;101995.91;5575086;31;34638;-69
2022/11/12 14:00:19;;;;;;;;;;;;;;;13.59;97.48;101998.41;5588988;31;34800;-71
2022/11/12 14:03:45;;;;;;;;;;;;;;;13.75;96.81;102003.91;5588995;31;34223;-70
2022/11/12 14:07:26;;;;;;;;;;;;;;;13.68;96.79;102000.19;5588769;31;34621;-70
2022/11/12 14:11:07;;;;;;;;;;;;;;;13.38;99.02;101991.47;5588859;31;34370;-70
2022/11/12 14:14:34;;;;;;;;;;;;;;;13.28;99.34;101997.84;5589002;31;34181;-70
2022/11/12 14:18:12;;;;;;;;;;;;;;;13.30;99.99;101991.38;5574976;31;35255;-70
2022/11/12 14:21:37;;;;;;;;;;;;;;;13.26;99.72;101991.81;5588610;31;34179;-70
2022/11/12 14:25:02;;;;;;;;;;;;;;;13.12;100.00;101989.63;5588480;31;34779;-70
2022/11/12 14:28:32;;;;;;;;;;;;;;;13.17;100.00;101998.03;5588431;31;34167;-70
2022/11/12 14:31:59;;;;;;;;;;;;;;;13.23;99.94;101995.59;5588334;31;34921;-69
2022/11/12 14:35:31;;;;;;;;;;;;;;;13.11;100.00;101986.13;5573747;31;34552;-70
2022/11/12 14:38:56;;;;;;;;;;;;;;;12.99;100.00;101984.56;5574641;31;34124;-70
2022/11/12 14:42:19;;;;;;;;;;;;;;;12.89;100.00;101986.41;5566331;31;34533;-70
2022/11/12 14:45:47;;;;;;;;;;;;;;;12.67;100.00;101990.25;5590816;31;34459;-70
2022/11/12 14:49:17;;;;;;;;;;;;;;;12.53;100.00;101988.03;5590978;31;34316;-70
2022/11/12 14:52:45;;;;;;;;;;;;;;;12.45;100.00;101985.22;5590957;31;34220;-69
2022/11/12 14:56:13;;;;;;;;;;;;;;;12.34;100.00;101982.72;5590984;31;34209;-70
2022/11/12 14:59:37;;;;;;;;;;;;;;;12.35;100.00;101984.38;5590817;31;34397;-70
2022/11/12 15:03:00;;;;;;;;;;;;;;;12.35;100.00;101987.88;5590317;31;34885;-70
2022/11/12 15:06:28;;;;;;;;;;;;;;;12.23;100.00;101983.69;5590634;31;34369;-69
2022/11/12 15:09:52;;;;;;;;;;;;;;;12.15;100.00;101995.00;5591056;31;35000;-69
2022/11/12 15:13:17;;;;;;;;;;;;;;;12.18;100.00;101999.22;5570182;32;34678;-70
2022/11/12 15:16:42;;;;;;;;;;;;;;;12.04;100.00;101999.63;5570909;32;34677;-70
2022/11/12 15:20:12;;;;;;;;;;;;;;;11.99;100.00;102002.69;5570819;32;34713;-70
2022/11/12 15:23:45;;;;;;;;;;;;;;;11.69;100.00;102005.38;5571106;32;34298;-70
2022/11/12 15:27:28;;;;;;;;;;;;;;;11.41;100.00;101999.00;5558675;32;35014;-70
2022/11/12 15:31:18;;;;;;;;;;;;;;;11.27;100.00;102005.53;5570829;32;34306;-70
2022/11/12 15:34:41;;;;;;;;;;;;;;;11.19;100.00;101996.50;5559412;32;32995;-70
2022/11/12 15:38:05;;;;;;;;;;;;;;;11.18;100.00;102008.94;5570620;32;34700;-70
2022/11/12 15:41:30;;;;;;;;;;;;;;;11.05;100.00;102005.66;5570447;32;33606;-70
2022/11/12 15:45:01;;;;;;;;;;;;;;;11.04;100.00;102011.94;5569972;32;33496;-70
2022/11/12 15:48:24;;;;;;;;;;;;;;;11.07;100.00;102005.53;5569740;32;33017;-70
2022/11/12 15:51:50;;;;;;;;;;;;;;;10.97;100.00;102016.09;5559308;32;35234;-70
2022/11/12 15:55:14;;;;;;;;;;;;;;;10.92;100.00;102020.97;5570106;32;34224;-70
2022/11/12 15:58:39;;;;;;;;;;;;;;;10.84;100.00;102023.44;5570206;32;32616;-70
2022/11/12 16:02:03;;;;;;;;;;;;;;;10.82;100.00;102025.38;5571138;32;34206;-70
2022/11/12 16:05:28;;;;;;;;;;;;;;;10.81;100.00;102029.84;5569930;32;32801;-70
2022/11/12 16:08:53;;;;;;;;;;;;;;;10.83;100.00;102035.88;5570014;32;32662;-70
2022/11/12 16:12:18;;;;;;;;;;;;;;;10.83;100.00;102033.22;5569534;31;33014;-70
2022/11/12 16:15:43;;;;;;;;;;;;;;;10.83;100.00;102033.22;5569820;32;34266;-70
2022/11/12 16:19:11;;;;;;;;;;;;;;;10.89;100.00;102032.66;5569565;32;35597;-70
2022/11/12 16:22:35;;;;;;;;;;;;;;;10.89;100.00;102030.00;5570471;32;34358;-70
2022/11/12 16:26:01;;;;;;;;;;;;;;;10.88;100.00;102031.00;5570448;32;34952;-70
2022/11/12 16:29:26;;;;;;;;;;;;;;;10.90;100.00;102031.72;5570523;32;34272;-69
2022/11/12 16:32:50;;;;;;;;;;;;;;;10.96;100.00;102016.22;5569596;32;34224;-70
2022/11/12 16:36:15;;;;;;;;;;;;;;;10.96;100.00;102027.69;5569724;32;32611;-70
2022/11/12 16:39:39;;;;;;;;;;;;;;;10.97;100.00;102028.53;5570589;32;34700;-71
2022/11/12 16:43:03;;;;;;;;;;;;;;;10.94;100.00;102028.81;5559003;32;33606;-70
2022/11/12 16:46:30;;;;;;;;;;;;;;;10.89;100.00;102030.00;5569690;32;35103;-70
2022/11/12 16:49:53;;;;;;;;;;;;;;;10.79;100.00;102028.28;5569804;32;34794;-70
2022/11/12 16:53:17;;;;;;;;;;;;;;;10.69;100.00;102024.72;5569254;32;35968;-70
2022/11/12 16:56:41;;;;;;;;;;;;;;;10.69;100.00;102024.72;5569239;32;35758;-70
2022/11/12 17:00:05;;;;;;;;;;;;;;;10.64;100.00;102014.50;5569321;32;34846;-70
2022/11/12 17:03:28;;;;;;;;;;;;;;;10.61;100.00;102020.03;5568935;32;35295;-70
2022/11/12 17:06:53;;;;;;;;;;;;;;;10.52;100.00;102023.47;5569317;32;32799;-70
2022/11/12 17:10:22;;;;;;;;;;;;;;;10.39;100.00;102018.34;5569256;32;34183;-70
2022/11/12 17:13:45;;;;;;;;;;;;;;;10.20;100.00;102027.94;5586721;31;34319;-69
2022/11/12 17:17:09;;;;;;;;;;;;;;;10.01;100.00;102023.25;5575416;31;33657;-70
2022/11/12 17:20:33;;;;;;;;;;;;;;;9.83;100.00;102020.25;5575794;31;33113;-70
2022/11/12 17:23:57;;;;;;;;;;;;;;;9.65;100.00;102013.78;5578328;31;34820;-69
2022/11/12 17:27:19;;;;;;;;;;;;;;;9.52;100.00;102021.88;5589477;31;35115;-70
2022/11/12 17:30:43;;;;;;;;;;;;;;;9.39;100.00;102021.13;5589462;31;34859;-70
2022/11/12 17:34:07;;;;;;;;;;;;;;;9.27;100.00;102016.81;5589401;31;34282;-69
2022/11/12 17:37:32;;;;;;;;;;;;;;;9.17;100.00;102013.19;5575293;31;33067;-70
2022/11/12 17:40:58;;;;;;;;;;;;;;;9.05;100.00;102009.66;5589354;31;34954;-70
2022/11/12 17:44:21;;;;;;;;;;;;;;;8.96;100.00;102009.53;5589353;31;33979;-70
2022/11/12 17:47:45;;;;;;;;;;;;;;;8.89;100.00;102018.91;5575343;31;33113;-70
2022/11/12 17:51:11;;;;;;;;;;;;;;;8.80;100.00;102019.63;5563759;31;32822;-70
2022/11/12 17:54:35;;;;;;;;;;;;;;;8.74;100.00;102012.97;5575251;31;33638;-70
2022/11/12 17:57:59;;;;;;;;;;;;;;;8.67;100.00;102019.69;5575086;31;33517;-70
2022/11/12 18:01:23;;;;;;;;;;;;;;;8.60;100.00;102021.97;5588838;31;34441;-71
2022/11/12 18:04:46;;;;;;;;;;;;;;;8.54;100.00;102017.13;5589070;31;34703;-69
2022/11/12 18:08:08;;;;;;;;;;;;;;;8.55;100.00;102018.81;5588667;31;34733;-69